sensor_id;sensor_type;location;lat;lon;timestamp;P1;durP1;ratioP1;P2;durP2;ratioP2
37805;SDS011;25082;50.870;0.022;2022-09-09T00:04:09;8.45;;;2.30;;
37805;SDS011;25082;50.870;0.022;2022-09-09T00:09:14;7.88;;;2.22;;
37805;SDS011;25082;50.870;0.022;2022-09-09T00:11:43;10.20;;;2.67;;
37805;SDS011;25082;50.870;0.022;2022-09-09T00:14:30;6.13;;;1.80;;
37805;SDS011;25082;50.870;0.022;2022-09-09T00:22:57;8.00;;;1.90;;
37805;SDS011;25082;50.870;0.022;2022-09-09T00:25:29;9.77;;;2.15;;
37805;SDS011;25082;50.870;0.022;2022-09-09T00:28:04;7.35;;;1.85;;
37805;SDS011;25082;50.870;0.022;2022-09-09T00:30:55;9.30;;;2.05;;
37805;SDS011;25082;50.870;0.022;2022-09-09T00:33:26;6.20;;;1.80;;
37805;SDS011;25082;50.870;0.022;2022-09-09T00:35:59;4.72;;;1.92;;
37805;SDS011;25082;50.870;0.022;2022-09-09T00:38:31;5.78;;;1.58;;
37805;SDS011;25082;50.870;0.022;2022-09-09T00:41:09;4.68;;;1.52;;
37805;SDS011;25082;50.870;0.022;2022-09-09T00:43:38;5.18;;;1.70;;
37805;SDS011;25082;50.870;0.022;2022-09-09T00:46:25;10.50;;;2.05;;
37805;SDS011;25082;50.870;0.022;2022-09-09T00:52:18;6.95;;;1.92;;
37805;SDS011;25082;50.870;0.022;2022-09-09T00:57:37;4.35;;;1.30;;
37805;SDS011;25082;50.870;0.022;2022-09-09T01:00:22;5.47;;;1.60;;
37805;SDS011;25082;50.870;0.022;2022-09-09T01:11:37;4.88;;;1.58;;
37805;SDS011;25082;50.870;0.022;2022-09-09T01:16:50;4.15;;;1.42;;
37805;SDS011;25082;50.870;0.022;2022-09-09T01:19:27;7.40;;;1.92;;
37805;SDS011;25082;50.870;0.022;2022-09-09T01:28:30;5.57;;;1.52;;
37805;SDS011;25082;50.870;0.022;2022-09-09T01:30:58;3.97;;;1.00;;
37805;SDS011;25082;50.870;0.022;2022-09-09T01:33:26;4.80;;;1.45;;
37805;SDS011;25082;50.870;0.022;2022-09-09T01:35:54;3.95;;;1.20;;
37805;SDS011;25082;50.870;0.022;2022-09-09T01:38:28;4.85;;;1.13;;
37805;SDS011;25082;50.870;0.022;2022-09-09T01:40:57;3.63;;;1.27;;
37805;SDS011;25082;50.870;0.022;2022-09-09T01:43:23;3.92;;;1.20;;
37805;SDS011;25082;50.870;0.022;2022-09-09T01:45:54;3.88;;;1.52;;
37805;SDS011;25082;50.870;0.022;2022-09-09T01:50:50;6.57;;;1.90;;
37805;SDS011;25082;50.870;0.022;2022-09-09T01:53:17;6.03;;;1.52;;
37805;SDS011;25082;50.870;0.022;2022-09-09T02:04:03;4.97;;;1.38;;
37805;SDS011;25082;50.870;0.022;2022-09-09T02:06:56;1.77;;;0.80;;
37805;SDS011;25082;50.870;0.022;2022-09-09T02:09:23;4.70;;;1.30;;
37805;SDS011;25082;50.870;0.022;2022-09-09T02:11:53;2.58;;;1.10;;
37805;SDS011;25082;50.870;0.022;2022-09-09T02:14:30;3.13;;;0.93;;
37805;SDS011;25082;50.870;0.022;2022-09-09T02:17:03;3.00;;;1.02;;
37805;SDS011;25082;50.870;0.022;2022-09-09T02:19:45;4.22;;;1.00;;
37805;SDS011;25082;50.870;0.022;2022-09-09T02:22:19;2.65;;;0.80;;
37805;SDS011;25082;50.870;0.022;2022-09-09T02:24:50;3.08;;;1.02;;
37805;SDS011;25082;50.870;0.022;2022-09-09T02:27:20;3.05;;;1.05;;
37805;SDS011;25082;50.870;0.022;2022-09-09T02:29:47;2.08;;;0.95;;
37805;SDS011;25082;50.870;0.022;2022-09-09T02:32:21;2.55;;;0.73;;
37805;SDS011;25082;50.870;0.022;2022-09-09T02:35:03;2.88;;;0.93;;
37805;SDS011;25082;50.870;0.022;2022-09-09T02:37:40;5.95;;;1.42;;
37805;SDS011;25082;50.870;0.022;2022-09-09T02:40:09;3.25;;;1.00;;
37805;SDS011;25082;50.870;0.022;2022-09-09T02:42:40;2.13;;;0.80;;
37805;SDS011;25082;50.870;0.022;2022-09-09T02:45:11;4.25;;;0.95;;
37805;SDS011;25082;50.870;0.022;2022-09-09T02:51:15;4.88;;;1.10;;
37805;SDS011;25082;50.870;0.022;2022-09-09T02:54:10;2.53;;;1.00;;
37805;SDS011;25082;50.870;0.022;2022-09-09T02:56:52;3.97;;;1.17;;
37805;SDS011;25082;50.870;0.022;2022-09-09T02:59:22;1.30;;;0.68;;
37805;SDS011;25082;50.870;0.022;2022-09-09T03:01:51;2.72;;;0.80;;
37805;SDS011;25082;50.870;0.022;2022-09-09T03:04:18;7.55;;;1.58;;
37805;SDS011;25082;50.870;0.022;2022-09-09T03:06:45;2.45;;;0.70;;
37805;SDS011;25082;50.870;0.022;2022-09-09T03:09:12;4.28;;;1.15;;
37805;SDS011;25082;50.870;0.022;2022-09-09T03:11:38;2.17;;;1.00;;
37805;SDS011;25082;50.870;0.022;2022-09-09T03:14:04;3.55;;;1.17;;
37805;SDS011;25082;50.870;0.022;2022-09-09T03:16:31;1.88;;;0.65;;
37805;SDS011;25082;50.870;0.022;2022-09-09T03:19:00;2.42;;;1.05;;
37805;SDS011;25082;50.870;0.022;2022-09-09T03:21:26;3.92;;;1.23;;
37805;SDS011;25082;50.870;0.022;2022-09-09T03:23:52;2.35;;;1.00;;
37805;SDS011;25082;50.870;0.022;2022-09-09T03:26:19;3.67;;;0.90;;
37805;SDS011;25082;50.870;0.022;2022-09-09T03:28:46;2.05;;;0.73;;
37805;SDS011;25082;50.870;0.022;2022-09-09T03:31:12;2.97;;;1.23;;
37805;SDS011;25082;50.870;0.022;2022-09-09T03:33:39;3.97;;;1.10;;
37805;SDS011;25082;50.870;0.022;2022-09-09T03:36:09;3.63;;;1.20;;
37805;SDS011;25082;50.870;0.022;2022-09-09T03:38:36;2.55;;;0.65;;
37805;SDS011;25082;50.870;0.022;2022-09-09T03:41:02;1.55;;;0.75;;
37805;SDS011;25082;50.870;0.022;2022-09-09T03:43:33;2.13;;;0.88;;
37805;SDS011;25082;50.870;0.022;2022-09-09T03:45:59;3.05;;;0.73;;
37805;SDS011;25082;50.870;0.022;2022-09-09T03:48:26;3.88;;;1.10;;
37805;SDS011;25082;50.870;0.022;2022-09-09T03:50:54;2.30;;;0.60;;
37805;SDS011;25082;50.870;0.022;2022-09-09T03:53:26;1.60;;;0.70;;
37805;SDS011;25082;50.870;0.022;2022-09-09T03:55:54;1.30;;;0.77;;
37805;SDS011;25082;50.870;0.022;2022-09-09T03:58:21;2.72;;;1.13;;
37805;SDS011;25082;50.870;0.022;2022-09-09T04:00:55;2.22;;;0.80;;
37805;SDS011;25082;50.870;0.022;2022-09-09T04:03:23;2.55;;;1.02;;
37805;SDS011;25082;50.870;0.022;2022-09-09T04:05:51;1.20;;;0.60;;
37805;SDS011;25082;50.870;0.022;2022-09-09T04:08:21;1.90;;;0.77;;
37805;SDS011;25082;50.870;0.022;2022-09-09T04:10:50;2.05;;;0.65;;
37805;SDS011;25082;50.870;0.022;2022-09-09T04:13:17;2.15;;;0.90;;
37805;SDS011;25082;50.870;0.022;2022-09-09T04:15:50;3.50;;;0.90;;
37805;SDS011;25082;50.870;0.022;2022-09-09T04:18:20;1.63;;;0.88;;
37805;SDS011;25082;50.870;0.022;2022-09-09T04:20:50;3.05;;;0.82;;
37805;SDS011;25082;50.870;0.022;2022-09-09T04:23:17;1.80;;;0.60;;
37805;SDS011;25082;50.870;0.022;2022-09-09T04:25:50;2.47;;;0.70;;
37805;SDS011;25082;50.870;0.022;2022-09-09T04:30:45;1.98;;;0.77;;
37805;SDS011;25082;50.870;0.022;2022-09-09T04:33:12;2.60;;;0.80;;
37805;SDS011;25082;50.870;0.022;2022-09-09T04:35:43;1.45;;;0.60;;
37805;SDS011;25082;50.870;0.022;2022-09-09T04:38:15;2.83;;;0.77;;
37805;SDS011;25082;50.870;0.022;2022-09-09T04:40:43;1.27;;;0.70;;
37805;SDS011;25082;50.870;0.022;2022-09-09T04:43:11;2.70;;;0.80;;
37805;SDS011;25082;50.870;0.022;2022-09-09T04:45:39;4.35;;;1.10;;
37805;SDS011;25082;50.870;0.022;2022-09-09T04:48:07;2.53;;;0.88;;
37805;SDS011;25082;50.870;0.022;2022-09-09T04:50:35;1.20;;;0.60;;
37805;SDS011;25082;50.870;0.022;2022-09-09T04:53:02;1.73;;;0.52;;
37805;SDS011;25082;50.870;0.022;2022-09-09T04:55:30;1.85;;;0.75;;
37805;SDS011;25082;50.870;0.022;2022-09-09T04:57:57;0.50;;;0.50;;
37805;SDS011;25082;50.870;0.022;2022-09-09T05:00:28;2.95;;;0.70;;
37805;SDS011;25082;50.870;0.022;2022-09-09T05:02:54;2.17;;;0.75;;
37805;SDS011;25082;50.870;0.022;2022-09-09T05:05:21;2.20;;;0.82;;
37805;SDS011;25082;50.870;0.022;2022-09-09T05:07:47;1.58;;;0.52;;
37805;SDS011;25082;50.870;0.022;2022-09-09T05:10:14;2.92;;;0.77;;
37805;SDS011;25082;50.870;0.022;2022-09-09T05:12:51;1.90;;;0.80;;
37805;SDS011;25082;50.870;0.022;2022-09-09T05:15:19;1.52;;;0.80;;
37805;SDS011;25082;50.870;0.022;2022-09-09T05:17:46;3.10;;;0.80;;
37805;SDS011;25082;50.870;0.022;2022-09-09T05:20:12;1.55;;;0.50;;
37805;SDS011;25082;50.870;0.022;2022-09-09T05:22:39;1.92;;;1.00;;
37805;SDS011;25082;50.870;0.022;2022-09-09T05:25:05;1.25;;;0.70;;
37805;SDS011;25082;50.870;0.022;2022-09-09T05:27:35;1.25;;;0.75;;
37805;SDS011;25082;50.870;0.022;2022-09-09T05:30:03;1.48;;;0.70;;
37805;SDS011;25082;50.870;0.022;2022-09-09T05:32:30;0.55;;;0.55;;
37805;SDS011;25082;50.870;0.022;2022-09-09T05:34:58;4.78;;;0.98;;
37805;SDS011;25082;50.870;0.022;2022-09-09T05:37:25;1.13;;;0.63;;
37805;SDS011;25082;50.870;0.022;2022-09-09T05:39:51;1.98;;;0.90;;
37805;SDS011;25082;50.870;0.022;2022-09-09T05:42:18;2.97;;;0.90;;
37805;SDS011;25082;50.870;0.022;2022-09-09T05:44:44;3.50;;;1.15;;
37805;SDS011;25082;50.870;0.022;2022-09-09T05:47:11;2.13;;;0.90;;
37805;SDS011;25082;50.870;0.022;2022-09-09T05:49:37;2.03;;;0.60;;
37805;SDS011;25082;50.870;0.022;2022-09-09T05:52:03;1.92;;;0.93;;
37805;SDS011;25082;50.870;0.022;2022-09-09T05:54:30;2.03;;;0.82;;
37805;SDS011;25082;50.870;0.022;2022-09-09T05:56:58;1.15;;;0.57;;
37805;SDS011;25082;50.870;0.022;2022-09-09T05:59:24;1.58;;;0.90;;
37805;SDS011;25082;50.870;0.022;2022-09-09T06:01:51;1.45;;;0.70;;
37805;SDS011;25082;50.870;0.022;2022-09-09T06:04:18;2.05;;;0.85;;
37805;SDS011;25082;50.870;0.022;2022-09-09T06:06:47;3.55;;;0.75;;
37805;SDS011;25082;50.870;0.022;2022-09-09T06:09:13;1.00;;;0.65;;
37805;SDS011;25082;50.870;0.022;2022-09-09T06:11:41;0.75;;;0.50;;
37805;SDS011;25082;50.870;0.022;2022-09-09T06:14:08;1.90;;;0.90;;
37805;SDS011;25082;50.870;0.022;2022-09-09T06:16:35;2.13;;;0.95;;
37805;SDS011;25082;50.870;0.022;2022-09-09T06:19:03;0.85;;;0.80;;
37805;SDS011;25082;50.870;0.022;2022-09-09T06:21:30;1.73;;;0.80;;
37805;SDS011;25082;50.870;0.022;2022-09-09T06:24:04;2.50;;;0.80;;
37805;SDS011;25082;50.870;0.022;2022-09-09T06:26:33;4.15;;;0.80;;
37805;SDS011;25082;50.870;0.022;2022-09-09T06:29:01;1.38;;;0.70;;
37805;SDS011;25082;50.870;0.022;2022-09-09T06:31:29;2.97;;;0.90;;
37805;SDS011;25082;50.870;0.022;2022-09-09T06:33:59;3.45;;;0.80;;
37805;SDS011;25082;50.870;0.022;2022-09-09T06:36:30;2.65;;;0.80;;
37805;SDS011;25082;50.870;0.022;2022-09-09T06:41:25;1.83;;;0.95;;
37805;SDS011;25082;50.870;0.022;2022-09-09T06:43:53;0.85;;;0.80;;
37805;SDS011;25082;50.870;0.022;2022-09-09T06:46:26;2.40;;;0.90;;
37805;SDS011;25082;50.870;0.022;2022-09-09T06:48:54;1.48;;;0.73;;
37805;SDS011;25082;50.870;0.022;2022-09-09T06:51:24;2.95;;;0.75;;
37805;SDS011;25082;50.870;0.022;2022-09-09T06:53:54;2.50;;;0.68;;
37805;SDS011;25082;50.870;0.022;2022-09-09T06:56:22;3.33;;;0.90;;
37805;SDS011;25082;50.870;0.022;2022-09-09T06:58:51;2.33;;;0.73;;
37805;SDS011;25082;50.870;0.022;2022-09-09T07:01:19;1.63;;;0.80;;
37805;SDS011;25082;50.870;0.022;2022-09-09T07:03:49;1.88;;;0.80;;
37805;SDS011;25082;50.870;0.022;2022-09-09T07:06:18;1.35;;;0.60;;
37805;SDS011;25082;50.870;0.022;2022-09-09T07:08:50;1.40;;;0.55;;
37805;SDS011;25082;50.870;0.022;2022-09-09T07:11:17;2.72;;;1.00;;
37805;SDS011;25082;50.870;0.022;2022-09-09T07:13:45;1.65;;;0.90;;
37805;SDS011;25082;50.870;0.022;2022-09-09T07:16:14;2.75;;;0.93;;
37805;SDS011;25082;50.870;0.022;2022-09-09T07:18:42;1.65;;;0.82;;
37805;SDS011;25082;50.870;0.022;2022-09-09T07:21:11;1.27;;;0.65;;
37805;SDS011;25082;50.870;0.022;2022-09-09T07:23:39;2.53;;;1.08;;
37805;SDS011;25082;50.870;0.022;2022-09-09T07:26:09;3.03;;;1.20;;
37805;SDS011;25082;50.870;0.022;2022-09-09T07:28:37;0.90;;;0.60;;
37805;SDS011;25082;50.870;0.022;2022-09-09T07:31:05;2.72;;;1.02;;
37805;SDS011;25082;50.870;0.022;2022-09-09T07:33:33;1.58;;;0.75;;
37805;SDS011;25082;50.870;0.022;2022-09-09T07:36:04;1.80;;;1.02;;
37805;SDS011;25082;50.870;0.022;2022-09-09T07:38:52;3.63;;;0.88;;
37805;SDS011;25082;50.870;0.022;2022-09-09T07:41:22;1.75;;;0.80;;
37805;SDS011;25082;50.870;0.022;2022-09-09T07:43:57;2.38;;;1.10;;
37805;SDS011;25082;50.870;0.022;2022-09-09T07:46:24;2.53;;;1.15;;
37805;SDS011;25082;50.870;0.022;2022-09-09T07:48:55;2.75;;;0.88;;
37805;SDS011;25082;50.870;0.022;2022-09-09T07:51:23;3.42;;;1.05;;
37805;SDS011;25082;50.870;0.022;2022-09-09T07:54:01;1.58;;;0.80;;
37805;SDS011;25082;50.870;0.022;2022-09-09T07:56:29;8.20;;;0.95;;
37805;SDS011;25082;50.870;0.022;2022-09-09T07:58:56;1.88;;;0.80;;
37805;SDS011;25082;50.870;0.022;2022-09-09T08:01:30;3.35;;;1.20;;
37805;SDS011;25082;50.870;0.022;2022-09-09T08:04:05;5.82;;;1.40;;
37805;SDS011;25082;50.870;0.022;2022-09-09T08:06:37;2.53;;;0.90;;
37805;SDS011;25082;50.870;0.022;2022-09-09T08:09:05;4.30;;;1.20;;
37805;SDS011;25082;50.870;0.022;2022-09-09T08:11:34;2.75;;;0.82;;
37805;SDS011;25082;50.870;0.022;2022-09-09T08:14:01;1.92;;;0.73;;
37805;SDS011;25082;50.870;0.022;2022-09-09T08:16:30;2.33;;;1.00;;
37805;SDS011;25082;50.870;0.022;2022-09-09T08:18:57;4.32;;;1.17;;
37805;SDS011;25082;50.870;0.022;2022-09-09T08:21:28;2.67;;;0.77;;
37805;SDS011;25082;50.870;0.022;2022-09-09T08:23:57;6.82;;;1.67;;
37805;SDS011;25082;50.870;0.022;2022-09-09T08:26:26;8.60;;;2.42;;
37805;SDS011;25082;50.870;0.022;2022-09-09T08:28:57;5.35;;;2.13;;
37805;SDS011;25082;50.870;0.022;2022-09-09T08:31:28;5.15;;;2.38;;
37805;SDS011;25082;50.870;0.022;2022-09-09T08:33:57;11.10;;;2.92;;
37805;SDS011;25082;50.870;0.022;2022-09-09T08:36:38;5.38;;;2.47;;
37805;SDS011;25082;50.870;0.022;2022-09-09T08:39:07;7.80;;;2.33;;
37805;SDS011;25082;50.870;0.022;2022-09-09T08:57:51;8.55;;;3.40;;
37805;SDS011;25082;50.870;0.022;2022-09-09T09:00:19;9.85;;;3.03;;
37805;SDS011;25082;50.870;0.022;2022-09-09T09:10:28;7.72;;;2.22;;
37805;SDS011;25082;50.870;0.022;2022-09-09T09:16:29;5.25;;;1.95;;
37805;SDS011;25082;50.870;0.022;2022-09-09T09:18:57;3.88;;;1.88;;
37805;SDS011;25082;50.870;0.022;2022-09-09T09:24:19;4.10;;;2.05;;
37805;SDS011;25082;50.870;0.022;2022-09-09T09:26:48;3.13;;;1.50;;
37805;SDS011;25082;50.870;0.022;2022-09-09T09:29:18;3.13;;;1.40;;
37805;SDS011;25082;50.870;0.022;2022-09-09T09:31:56;4.88;;;1.63;;
37805;SDS011;25082;50.870;0.022;2022-09-09T09:34:27;3.05;;;1.63;;
37805;SDS011;25082;50.870;0.022;2022-09-09T09:36:57;5.72;;;1.92;;
37805;SDS011;25082;50.870;0.022;2022-09-09T09:39:30;3.85;;;1.73;;
37805;SDS011;25082;50.870;0.022;2022-09-09T09:42:07;4.97;;;1.50;;
37805;SDS011;25082;50.870;0.022;2022-09-09T09:44:39;3.13;;;1.58;;
37805;SDS011;25082;50.870;0.022;2022-09-09T09:49:38;3.30;;;1.50;;
37805;SDS011;25082;50.870;0.022;2022-09-09T09:52:04;3.35;;;1.73;;
37805;SDS011;25082;50.870;0.022;2022-09-09T09:54:32;4.47;;;1.50;;
37805;SDS011;25082;50.870;0.022;2022-09-09T09:57:13;3.53;;;1.70;;
37805;SDS011;25082;50.870;0.022;2022-09-09T09:59:41;3.60;;;1.75;;
37805;SDS011;25082;50.870;0.022;2022-09-09T10:02:14;2.92;;;1.35;;
37805;SDS011;25082;50.870;0.022;2022-09-09T10:05:00;5.88;;;1.83;;
37805;SDS011;25082;50.870;0.022;2022-09-09T10:07:26;2.67;;;1.70;;
37805;SDS011;25082;50.870;0.022;2022-09-09T10:09:53;4.38;;;2.00;;
37805;SDS011;25082;50.870;0.022;2022-09-09T10:31:53;1.60;;;1.00;;
37805;SDS011;25082;50.870;0.022;2022-09-09T10:34:53;1.70;;;1.13;;
37805;SDS011;25082;50.870;0.022;2022-09-09T10:42:38;3.30;;;1.35;;
37805;SDS011;25082;50.870;0.022;2022-09-09T10:56:17;2.83;;;1.35;;
37805;SDS011;25082;50.870;0.022;2022-09-09T11:01:22;3.22;;;1.20;;
37805;SDS011;25082;50.870;0.022;2022-09-09T11:03:57;1.83;;;1.10;;
37805;SDS011;25082;50.870;0.022;2022-09-09T11:06:32;1.95;;;1.13;;
37805;SDS011;25082;50.870;0.022;2022-09-09T11:09:03;2.78;;;1.48;;
37805;SDS011;25082;50.870;0.022;2022-09-09T11:11:39;2.65;;;1.20;;
37805;SDS011;25082;50.870;0.022;2022-09-09T11:14:33;2.75;;;1.05;;
37805;SDS011;25082;50.870;0.022;2022-09-09T11:17:01;2.40;;;1.33;;
37805;SDS011;25082;50.870;0.022;2022-09-09T11:19:40;1.40;;;1.15;;
37805;SDS011;25082;50.870;0.022;2022-09-09T11:22:08;4.72;;;1.60;;
37805;SDS011;25082;50.870;0.022;2022-09-09T11:27:29;3.33;;;1.23;;
37805;SDS011;25082;50.870;0.022;2022-09-09T11:30:16;2.95;;;1.15;;
37805;SDS011;25082;50.870;0.022;2022-09-09T11:38:08;3.22;;;1.20;;
37805;SDS011;25082;50.870;0.022;2022-09-09T11:40:40;1.23;;;1.10;;
37805;SDS011;25082;50.870;0.022;2022-09-09T11:45:37;2.45;;;1.20;;
37805;SDS011;25082;50.870;0.022;2022-09-09T11:48:05;2.22;;;0.80;;
37805;SDS011;25082;50.870;0.022;2022-09-09T11:50:57;4.32;;;1.30;;
37805;SDS011;25082;50.870;0.022;2022-09-09T11:53:30;1.33;;;0.98;;
37805;SDS011;25082;50.870;0.022;2022-09-09T11:58:39;1.60;;;1.00;;
37805;SDS011;25082;50.870;0.022;2022-09-09T12:01:28;1.70;;;1.10;;
37805;SDS011;25082;50.870;0.022;2022-09-09T12:04:05;1.55;;;1.17;;
37805;SDS011;25082;50.870;0.022;2022-09-09T12:06:56;1.67;;;1.00;;
37805;SDS011;25082;50.870;0.022;2022-09-09T12:17:24;1.67;;;0.85;;
37805;SDS011;25082;50.870;0.022;2022-09-09T12:20:03;2.40;;;1.00;;
37805;SDS011;25082;50.870;0.022;2022-09-09T12:22:45;1.73;;;0.95;;
37805;SDS011;25082;50.870;0.022;2022-09-09T12:33:24;1.10;;;0.90;;
37805;SDS011;25082;50.870;0.022;2022-09-09T12:35:58;1.33;;;1.10;;
37805;SDS011;25082;50.870;0.022;2022-09-09T12:38:32;3.25;;;1.08;;
37805;SDS011;25082;50.870;0.022;2022-09-09T12:41:01;3.97;;;1.30;;
37805;SDS011;25082;50.870;0.022;2022-09-09T12:43:27;3.92;;;1.10;;
37805;SDS011;25082;50.870;0.022;2022-09-09T12:46:00;1.13;;;0.90;;
37805;SDS011;25082;50.870;0.022;2022-09-09T12:48:36;2.15;;;1.05;;
37805;SDS011;25082;50.870;0.022;2022-09-09T12:51:14;2.35;;;1.27;;
37805;SDS011;25082;50.870;0.022;2022-09-09T12:53:50;1.73;;;1.00;;
37805;SDS011;25082;50.870;0.022;2022-09-09T12:56:20;1.23;;;1.00;;
37805;SDS011;25082;50.870;0.022;2022-09-09T12:58:49;2.03;;;1.40;;
37805;SDS011;25082;50.870;0.022;2022-09-09T13:01:25;1.38;;;0.75;;
37805;SDS011;25082;50.870;0.022;2022-09-09T13:03:53;2.15;;;1.08;;
37805;SDS011;25082;50.870;0.022;2022-09-09T13:06:26;1.88;;;1.20;;
37805;SDS011;25082;50.870;0.022;2022-09-09T13:08:55;1.92;;;0.90;;
37805;SDS011;25082;50.870;0.022;2022-09-09T13:11:42;2.47;;;1.15;;
37805;SDS011;25082;50.870;0.022;2022-09-09T13:14:19;2.40;;;1.30;;
37805;SDS011;25082;50.870;0.022;2022-09-09T13:19:37;1.55;;;0.93;;
37805;SDS011;25082;50.870;0.022;2022-09-09T13:22:14;2.28;;;1.00;;
37805;SDS011;25082;50.870;0.022;2022-09-09T13:25:02;1.90;;;0.98;;
37805;SDS011;25082;50.870;0.022;2022-09-09T13:27:32;2.05;;;1.10;;
37805;SDS011;25082;50.870;0.022;2022-09-09T13:36:01;2.85;;;1.10;;
37805;SDS011;25082;50.870;0.022;2022-09-09T13:38:40;2.22;;;1.30;;
37805;SDS011;25082;50.870;0.022;2022-09-09T13:42:05;1.48;;;1.00;;
37805;SDS011;25082;50.870;0.022;2022-09-09T13:49:39;0.80;;;0.80;;
37805;SDS011;25082;50.870;0.022;2022-09-09T13:54:34;1.23;;;1.00;;
37805;SDS011;25082;50.870;0.022;2022-09-09T13:57:00;1.83;;;0.95;;
37805;SDS011;25082;50.870;0.022;2022-09-09T13:59:26;2.00;;;0.98;;
37805;SDS011;25082;50.870;0.022;2022-09-09T14:01:52;1.02;;;0.75;;
37805;SDS011;25082;50.870;0.022;2022-09-09T14:04:18;2.83;;;1.10;;
37805;SDS011;25082;50.870;0.022;2022-09-09T14:06:47;1.55;;;0.90;;
37805;SDS011;25082;50.870;0.022;2022-09-09T14:09:14;1.48;;;0.98;;
37805;SDS011;25082;50.870;0.022;2022-09-09T14:11:42;3.08;;;1.35;;
37805;SDS011;25082;50.870;0.022;2022-09-09T14:14:10;3.40;;;1.00;;
37805;SDS011;25082;50.870;0.022;2022-09-09T14:16:36;1.17;;;0.90;;
37805;SDS011;25082;50.870;0.022;2022-09-09T14:19:02;1.17;;;0.98;;
37805;SDS011;25082;50.870;0.022;2022-09-09T14:21:28;1.13;;;0.80;;
37805;SDS011;25082;50.870;0.022;2022-09-09T14:23:54;1.65;;;1.00;;
37805;SDS011;25082;50.870;0.022;2022-09-09T14:26:22;2.35;;;1.30;;
37805;SDS011;25082;50.870;0.022;2022-09-09T14:28:49;1.27;;;0.80;;
37805;SDS011;25082;50.870;0.022;2022-09-09T14:31:15;0.68;;;0.63;;
37805;SDS011;25082;50.870;0.022;2022-09-09T14:33:42;2.13;;;0.75;;
37805;SDS011;25082;50.870;0.022;2022-09-09T14:36:09;2.13;;;1.10;;
37805;SDS011;25082;50.870;0.022;2022-09-09T14:38:36;0.93;;;0.70;;
37805;SDS011;25082;50.870;0.022;2022-09-09T14:41:07;1.65;;;1.10;;
37805;SDS011;25082;50.870;0.022;2022-09-09T14:43:37;1.70;;;0.90;;
37805;SDS011;25082;50.870;0.022;2022-09-09T14:48:36;0.90;;;0.70;;
37805;SDS011;25082;50.870;0.022;2022-09-09T14:51:15;1.15;;;0.88;;
37805;SDS011;25082;50.870;0.022;2022-09-09T14:53:43;1.52;;;0.82;;
37805;SDS011;25082;50.870;0.022;2022-09-09T14:56:13;1.63;;;0.75;;
37805;SDS011;25082;50.870;0.022;2022-09-09T14:58:41;1.50;;;0.80;;
37805;SDS011;25082;50.870;0.022;2022-09-09T15:01:08;2.05;;;0.88;;
37805;SDS011;25082;50.870;0.022;2022-09-09T15:03:36;1.85;;;0.80;;
37805;SDS011;25082;50.870;0.022;2022-09-09T15:06:09;1.20;;;0.80;;
37805;SDS011;25082;50.870;0.022;2022-09-09T15:08:37;1.48;;;0.80;;
37805;SDS011;25082;50.870;0.022;2022-09-09T15:11:04;1.02;;;0.77;;
37805;SDS011;25082;50.870;0.022;2022-09-09T15:13:32;1.35;;;0.95;;
37805;SDS011;25082;50.870;0.022;2022-09-09T15:16:14;1.08;;;0.85;;
37805;SDS011;25082;50.870;0.022;2022-09-09T15:18:42;1.65;;;0.90;;
37805;SDS011;25082;50.870;0.022;2022-09-09T15:21:13;1.48;;;0.80;;
37805;SDS011;25082;50.870;0.022;2022-09-09T15:23:44;1.73;;;0.98;;
37805;SDS011;25082;50.870;0.022;2022-09-09T15:26:11;1.05;;;0.77;;
37805;SDS011;25082;50.870;0.022;2022-09-09T15:28:39;1.90;;;0.70;;
37805;SDS011;25082;50.870;0.022;2022-09-09T15:31:12;1.58;;;0.85;;
37805;SDS011;25082;50.870;0.022;2022-09-09T15:33:47;2.22;;;0.63;;
37805;SDS011;25082;50.870;0.022;2022-09-09T15:38:43;0.70;;;0.65;;
37805;SDS011;25082;50.870;0.022;2022-09-09T15:41:09;2.05;;;0.90;;
37805;SDS011;25082;50.870;0.022;2022-09-09T15:43:35;1.35;;;0.85;;
37805;SDS011;25082;50.870;0.022;2022-09-09T15:48:42;1.60;;;0.65;;
37805;SDS011;25082;50.870;0.022;2022-09-09T15:51:11;1.40;;;0.88;;
37805;SDS011;25082;50.870;0.022;2022-09-09T15:53:37;1.08;;;0.77;;
37805;SDS011;25082;50.870;0.022;2022-09-09T15:56:07;1.08;;;0.85;;
37805;SDS011;25082;50.870;0.022;2022-09-09T15:58:33;1.30;;;0.68;;
37805;SDS011;25082;50.870;0.022;2022-09-09T16:01:04;1.40;;;0.80;;
37805;SDS011;25082;50.870;0.022;2022-09-09T16:03:35;0.98;;;0.70;;
37805;SDS011;25082;50.870;0.022;2022-09-09T16:06:07;2.17;;;1.08;;
37805;SDS011;25082;50.870;0.022;2022-09-09T16:08:38;0.73;;;0.73;;
37805;SDS011;25082;50.870;0.022;2022-09-09T16:13:37;1.52;;;0.90;;
37805;SDS011;25082;50.870;0.022;2022-09-09T16:16:04;0.90;;;0.70;;
37805;SDS011;25082;50.870;0.022;2022-09-09T16:18:42;1.42;;;0.88;;
37805;SDS011;25082;50.870;0.022;2022-09-09T16:21:13;1.15;;;0.82;;
37805;SDS011;25082;50.870;0.022;2022-09-09T16:23:44;0.50;;;0.50;;
37805;SDS011;25082;50.870;0.022;2022-09-09T16:26:10;0.77;;;0.77;;
37805;SDS011;25082;50.870;0.022;2022-09-09T16:28:38;1.08;;;0.80;;
37805;SDS011;25082;50.870;0.022;2022-09-09T16:31:07;1.20;;;0.77;;
37805;SDS011;25082;50.870;0.022;2022-09-09T16:33:35;0.93;;;0.65;;
37805;SDS011;25082;50.870;0.022;2022-09-09T16:36:05;1.50;;;0.80;;
37805;SDS011;25082;50.870;0.022;2022-09-09T16:38:36;0.90;;;0.60;;
37805;SDS011;25082;50.870;0.022;2022-09-09T16:41:02;1.52;;;0.60;;
37805;SDS011;25082;50.870;0.022;2022-09-09T16:43:31;1.77;;;0.80;;
37805;SDS011;25082;50.870;0.022;2022-09-09T16:46:03;1.05;;;0.77;;
37805;SDS011;25082;50.870;0.022;2022-09-09T16:48:41;0.73;;;0.50;;
37805;SDS011;25082;50.870;0.022;2022-09-09T16:51:11;1.63;;;0.82;;
37805;SDS011;25082;50.870;0.022;2022-09-09T16:53:39;1.48;;;0.63;;
37805;SDS011;25082;50.870;0.022;2022-09-09T16:56:08;1.05;;;0.77;;
37805;SDS011;25082;50.870;0.022;2022-09-09T16:58:35;0.90;;;0.80;;
37805;SDS011;25082;50.870;0.022;2022-09-09T17:01:01;1.52;;;0.60;;
37805;SDS011;25082;50.870;0.022;2022-09-09T17:03:28;1.52;;;0.80;;
37805;SDS011;25082;50.870;0.022;2022-09-09T17:05:54;0.60;;;0.60;;
37805;SDS011;25082;50.870;0.022;2022-09-09T17:08:20;2.58;;;1.00;;
37805;SDS011;25082;50.870;0.022;2022-09-09T17:10:46;0.73;;;0.70;;
37805;SDS011;25082;50.870;0.022;2022-09-09T17:13:12;0.85;;;0.70;;
37805;SDS011;25082;50.870;0.022;2022-09-09T17:15:41;2.13;;;1.00;;
37805;SDS011;25082;50.870;0.022;2022-09-09T17:18:11;1.02;;;0.77;;
37805;SDS011;25082;50.870;0.022;2022-09-09T17:20:38;1.30;;;0.80;;
37805;SDS011;25082;50.870;0.022;2022-09-09T17:23:08;1.40;;;0.85;;
37805;SDS011;25082;50.870;0.022;2022-09-09T17:25:35;1.70;;;1.13;;
37805;SDS011;25082;50.870;0.022;2022-09-09T17:28:02;1.27;;;1.08;;
37805;SDS011;25082;50.870;0.022;2022-09-09T17:30:34;3.58;;;0.90;;
37805;SDS011;25082;50.870;0.022;2022-09-09T17:33:01;0.90;;;0.70;;
37805;SDS011;25082;50.870;0.022;2022-09-09T17:35:31;1.23;;;1.00;;
37805;SDS011;25082;50.870;0.022;2022-09-09T17:37:57;1.40;;;0.90;;
37805;SDS011;25082;50.870;0.022;2022-09-09T17:40:23;1.67;;;1.08;;
37805;SDS011;25082;50.870;0.022;2022-09-09T17:42:49;1.10;;;0.88;;
37805;SDS011;25082;50.870;0.022;2022-09-09T17:45:15;3.40;;;1.30;;
37805;SDS011;25082;50.870;0.022;2022-09-09T17:47:41;1.20;;;0.95;;
37805;SDS011;25082;50.870;0.022;2022-09-09T17:50:08;2.63;;;1.13;;
37805;SDS011;25082;50.870;0.022;2022-09-09T17:52:37;1.85;;;1.05;;
37805;SDS011;25082;50.870;0.022;2022-09-09T17:55:04;1.70;;;1.23;;
37805;SDS011;25082;50.870;0.022;2022-09-09T17:57:30;3.95;;;1.63;;
37805;SDS011;25082;50.870;0.022;2022-09-09T17:59:56;1.38;;;1.20;;
37805;SDS011;25082;50.870;0.022;2022-09-09T18:02:22;3.38;;;1.08;;
37805;SDS011;25082;50.870;0.022;2022-09-09T18:04:47;1.75;;;1.27;;
37805;SDS011;25082;50.870;0.022;2022-09-09T18:07:13;2.70;;;1.30;;
37805;SDS011;25082;50.870;0.022;2022-09-09T18:09:39;1.88;;;1.30;;